x

9449880 - Friday Harbor, Wa (frdw1) Weather Station

10:30 - Fri 29th Apr 2016 All times are PDT. -7 hours from GMT.

  • Wind
    7mph
  • Sea Temp 50°f
  • Luft Temp 52°f
  • Sea Pressure 1019.5mb
  • 9449880 - Friday Harbor, Wa
  • 9449880 - Friday Harbor, Wa

More Historic Weather Station data

Upgrade to MSW Pro to gain access to the past 30 days of data for over 8000 Wavebouys and Weather Stations around the globe.

Join Pro

Comparision Forecast

View Surf forecast
   
Fr 04/29 10:30 7
mph
1019.5mb 50f 52f
10:24 6 7 mph 1019.5mb 50f 52f
10:18 5 6 mph 1019.5mb 50f 52f
10:12 5 6 mph 1019.5mb 50f 51f
10:06 6 7 mph 1019.4mb 50f 51f
10:00 6 7 mph 1019.4mb 50f 51f
9:36 5 6 mph 1019.4mb 50f 51f
9:30 5 6 mph 1019.3mb 50f 51f
9:24 5
mph
1019.3mb 50f 51f
9:18 5 6 mph 1019.2mb 50f 51f
9:12 5 6 mph 1019.2mb 50f 51f
9:06 6 8 mph 1019.2mb 50f 51f
9:00 6 8 mph 1019.1mb 50f 51f
8:36 3 6 mph 1018.9mb 50f 50f
8:30 3
mph
1018.8mb 50f 50f
8:24 2 3 mph 1018.8mb 50f 50f
8:18 2
mph
1018.7mb 50f 50f
8:12 2
mph
1018.6mb 50f 49f
8:06 2
mph
1018.6mb 50f 49f
8:00 1 2 mph 1018.6mb 50f 49f
7:36  -  mph 1018.5mb 50f 49f
7:30  -  mph 1018.5mb 50f 49f
7:24  -  2 mph 1018.4mb 50f 49f
7:18  -  1 mph 1018.4mb 50f 49f
7:12  -  1 mph 1018.4mb 50f 49f
7:06  -  1 mph 1018.3mb 50f 49f
7:00  -  1 mph 1018.4mb 50f 49f
6:36 1
mph
1018.3mb 50f 49f
6:30  -  1 mph 1018.3mb 50f 49f
6:24  -  1 mph 1018.3mb 50f 49f
6:18  -  1 mph 1018.3mb 50f 48f
6:12 1 2 mph 1018.2mb 50f 49f
6:06 1 2 mph 1018.2mb 50f 48f
6:00 1 2 mph 1018.1mb 50f 48f
5:36  -  1 mph 1018.1mb 50f 48f
5:30 1
mph
1018mb 50f 48f
5:24  -  1 mph 1018mb 50f 48f
5:18 1
mph
1018mb 50f 49f
5:12 1 2 mph 1018mb 50f 49f
5:06  -  1 mph 1018mb 50f 49f
5:00 1
mph
1017.9mb 50f 48f
4:36  -  2 mph 1018.1mb 50f 49f
4:30  -  2 mph 1018.1mb 50f 49f
4:24 2 3 mph 1018.2mb 50f 49f
4:18 3
mph
1018.2mb 50f 49f
4:12 2 3 mph 1018.2mb 50f 49f
4:06 1 5 mph 1018.2mb 50f 49f
4:00  -  6 mph 1018.3mb 50f 49f
3:36 2 6 mph 1018.3mb 50f 50f
3:30 3 6 mph 1018.3mb 50f 50f
3:24 1 3 mph 1018.3mb 50f 50f
3:18  -  3 mph 1018.3mb 50f 50f
3:12  -  3 mph 1018.3mb 50f 50f
3:06  -  3 mph 1018.3mb 50f 50f
3:00 1 3 mph 1018.2mb 50f 50f
2:36 3 6 mph 1018.2mb 50f -
2:30 2 5 mph 1018.3mb 50f -
2:24  -  1 mph 1018.3mb 50f -
2:18 1 2 mph 1018.3mb 50f -
2:12 1 2 mph 1018.3mb 50f -
2:06 2 3 mph 1018.3mb 50f -
2:00 2 5 mph 1018.4mb 50f -
1:36  -  2 mph 1018.4mb 50f 51f
1:30  -  2 mph 1018.4mb 50f 51f
1:24  -  2 mph 1018.4mb 50f 51f
1:18  -  2 mph 1018.5mb 50f 51f
1:12 2 3 mph 1018.5mb 50f 51f
1:06  -  2 mph 1018.5mb 50f 50f
1:00  -  2 mph 1018.6mb 50f 50f
12:36 5 9 mph 1018.4mb 50f 51f
12:30 6 9 mph 1018.5mb 50f 51f
12:24 6 9 mph 1018.5mb 50f 51f
12:18 6 7 mph 1018.5mb 50f 51f
12:12 3 6 mph 1018.4mb 50f 51f
12:06 2 6 mph 1018.4mb 50f 51f
12:00 2 6 mph 1018.4mb 50f 51f
Do 04/28 11:36 6 8 mph 1018.3mb 50f 51f
11:30 7 8 mph 1018.3mb 50f 51f
11:24 7 8 mph 1018.3mb 50f 51f
11:18 7 9 mph 1018.3mb 50f 51f
11:12 7 9 mph 1018.3mb 50f 51f
11:06 7 8 mph 1018.2mb 50f 51f
11:00 6 10 mph 1018.2mb 50f 51f
10:36 9 11 mph 1018.3mb 50f 51f
10:30 8 10 mph 1018.3mb 50f 51f
10:24 9 10 mph 1018.3mb 50f 51f
10:18 9 10 mph 1018.3mb 50f 51f
10:12 8 10 mph 1018.3mb 50f 51f
10:06 8 11 mph 1018.3mb 50f 51f
10:00 8 10 mph 1018.3mb 50f 51f
9:36 8 13 mph 1018.4mb 50f 51f
9:30 8 13 mph 1018.4mb 50f 51f
9:24 7 11 mph 1018.4mb 50f 52f
9:18 5 8 mph 1018.4mb 50f 52f
9:12 5 9 mph 1018.3mb 50f 52f
9:06 6 10 mph 1018.2mb 50f 52f
9:00 7 10 mph 1018.2mb 50f 53f
8:36 16 18 mph 1018.1mb 50f 54f
8:30 16 20 mph 1018.1mb 50f 54f
8:24 17 22 mph 1018.1mb 50f 55f
8:18 15 18 mph 1018mb 50f 55f
8:12 16 21 mph 1018mb 50f 55f
8:06 17 24 mph 1018mb 50f 55f
8:00 17 24 mph 1018mb 50f 55f
7:36  -  mph 1018mb 50f 56f
7:30  -  mph 1018mb 50f 56f
7:24  -  mph 1018.1mb 50f 56f
7:18  -  mph 1018mb 50f 56f
7:12  -  mph 1018mb 50f 57f
7:06  -  mph 1018mb 50f 57f
7:00  -  mph 1018mb 50f 57f
6:36  -  mph 1018.2mb 50f 57f
6:30  -  mph 1018.3mb 50f 57f
6:24  -  mph 1018.3mb 50f 57f
6:18  -  mph 1018.3mb 51f 57f
6:12  -  mph 1018.4mb 51f 56f
6:06  -  mph 1018.4mb 51f 56f
6:00  -  mph 1018.4mb 51f 56f
5:36  -  mph 1018.5mb 51f 56f
5:30  -  mph 1018.5mb 51f 56f
5:24  -  mph 1018.4mb 51f 56f
5:18  -  mph 1018.4mb 51f 57f
5:12  -  mph 1018.4mb 51f 57f
5:06  -  mph 1018.3mb 51f 58f
5:00  -  mph 1018.3mb 51f 58f
4:36  -  mph 1018.4mb 51f 58f
4:30  -  mph 1018.5mb 51f 58f
4:24  -  mph 1018.5mb 51f 57f
4:18  -  mph 1018.5mb 51f 57f
4:12  -  mph 1018.6mb 51f 56f
4:06  -  mph 1018.6mb 51f 57f
4:00  -  mph 1018.6mb 51f 57f
3:36  -  mph 1019mb 51f 58f
3:30  -  mph 1018.9mb 51f 57f
3:24  -  mph 1018.9mb 51f 57f
3:18  -  mph 1019mb 51f 57f
3:12  -  mph 1019.1mb 51f 56f
3:06  -  mph 1019mb 51f 57f
3:00  -  mph 1019mb 51f 57f
2:36 7 9 mph 1019mb 51f 56f
2:30 7 10 mph 1019mb 51f 56f
2:24 6 9 mph 1019mb 51f 56f
2:18 5 10 mph 1019mb 51f 56f
2:12 7 10 mph 1019.1mb 51f 56f
2:06 5 11 mph 1019mb 51f 56f
2:00 7 9 mph 1018.9mb 51f 55f
1:36 6 8 mph 1018.8mb 51f 55f
1:30 6 9 mph 1018.9mb 51f 55f
1:24 6 9 mph 1018.9mb 50f 55f
1:18 5 8 mph 1018.9mb 50f 55f
1:12 7 11 mph 1018.9mb 50f 55f
1:06 8 13 mph 1018.9mb 50f 55f
1:00 8 11 mph 1019mb 50f 55f
12:36 6 8 mph 1019mb 50f 53f
12:30 5 7 mph 1019mb 50f 53f
12:24 6 8 mph 1019mb 50f 53f
12:18 7 8 mph 1019mb 50f 53f
12:12 7 8 mph 1019mb 50f 53f
12:06 7
mph
1019mb 50f 53f
12:00 6 7 mph 1019mb 50f 53f
11:36 5 6 mph 1019.2mb 50f 53f
11:30 5 6 mph 1019.2mb 50f 53f
11:24 5
mph
1019.3mb 50f 53f
11:18 3 5 mph 1019.3mb 50f 53f
11:12 2 5 mph 1019.4mb 50f 53f
11:06 2 3 mph 1019.4mb 50f 53f
11:00 2 5 mph 1019.3mb 50f 53f
10:36 3 5 mph 1019.3mb 50f 52f
10:30 2
mph
1019.3mb 50f 53f
10:24 1 2 mph 1019.4mb 50f 53f
10:18 2 3 mph 1019.4mb 50f 52f
10:12 2 3 mph 1019.4mb 50f 52f
10:06 2 3 mph 1019.4mb 50f 52f
10:00 3
mph
1019.3mb 50f 51f
9:54 2 3 mph 1019.3mb 50f 51f
9:48 3
mph
1019.2mb 50f 51f
9:36 5
mph
1019.4mb 50f 50f
9:30 5
mph
1019.4mb 50f 50f
9:24 5
mph
1019.4mb 50f 50f
9:18 2 3 mph 1019.5mb 50f 51f
9:12 2
mph
1019.5mb 50f 51f
9:06  -  2 mph 1019.5mb 50f 51f
9:00  -  1 mph 1019.6mb 50f 51f
8:54 1 2 mph 1019.6mb 50f 50f
8:48  -  1 mph 1019.6mb 50f 50f
8:36  -  1 mph 1019.5mb 50f 50f
8:30  -  1 mph 1019.5mb 50f 50f
8:24  -  1 mph 1019.4mb 50f 50f
8:18  -  1 mph 1019.4mb 50f 50f
8:12  -  1 mph 1019.3mb 50f 50f
8:06  -  1 mph 1019.3mb 50f 50f
8:00  -  mph 1019.3mb 50f 49f
7:54  -  mph 1019.3mb 50f 49f
7:48  -  2 mph 1019.2mb 50f 49f
7:36  -  mph 1019.2mb 50f 49f
7:30  -  1 mph 1019.1mb 50f 49f
7:24  -  1 mph 1019mb 50f 49f
7:18  -  1 mph 1019mb 50f 49f
7:12 1 2 mph 1019mb 50f 49f
7:06 2
mph
1019mb 50f 49f
7:00  -  1 mph 1019mb 50f 49f
6:54  -  mph 1019mb 50f 49f
6:48  -  mph 1019mb 50f 49f
6:36  -  mph 1019mb 50f 49f
6:30  -  mph 1019mb 50f 49f
6:24  -  mph 1018.9mb 50f 49f
6:18  -  1 mph 1018.9mb 50f 49f
6:12  -  mph 1018.8mb 50f 49f
6:06  -  mph 1018.8mb 50f 49f
6:00  -  mph 1018.7mb 50f 49f
5:54  -  1 mph 1018.7mb 50f 49f
5:48 1 2 mph 1018.5mb 50f 49f
5:36  -  1 mph 1018.5mb 50f 49f
5:30 1 2 mph 1018.4mb 50f 49f
5:24 1 2 mph 1018.4mb 50f 49f
5:18 1 2 mph 1018.4mb 50f 49f
5:12 1 2 mph 1018.3mb 50f 49f
5:06  -  1 mph 1018.3mb 50f 49f
5:00  -  mph 1018.3mb 50f 49f
4:54  -  mph 1018.3mb 50f 49f
4:48  -  mph 1018.3mb 50f 49f
4:36  -  mph 1018.3mb 50f 48f
4:30  -  mph 1018.3mb 50f 48f
4:24  -  1 mph 1018.2mb 50f 48f
4:18  -  2 mph 1018.2mb 50f 48f
4:12 2
mph
1018.1mb 50f 48f
4:06 2
mph
1018.1mb 50f 48f
4:00 1 2 mph 1018.1mb 50f 49f
3:54  -  mph 1018.1mb 50f 49f
3:48  -  mph 1018mb 50f 49f
3:36  -  1 mph 1017.9mb 50f 49f
3:30  -  mph 1017.9mb 50f 49f
3:24  -  mph 1017.9mb 50f 49f
3:18  -  mph 1017.9mb 50f 49f
3:12  -  mph 1017.9mb 50f 49f
3:06  -  mph 1017.9mb 50f 49f
3:00  -  mph 1017.8mb 50f 49f
2:54  -  mph 1017.8mb 50f 49f
2:48  -  1 mph 1017.8mb 50f 49f
2:36  -  1 mph 1017.7mb 50f 49f
2:30  -  1 mph 1017.7mb 50f 49f
2:24  -  1 mph 1017.6mb 50f 49f
2:18  -  mph 1017.6mb 50f 49f
2:12  -  mph 1017.5mb 50f 49f
2:06  -  mph 1017.5mb 50f 49f
2:00  -  mph 1017.5mb 50f 49f
1:54  -  1 mph 1017.5mb 50f 50f
1:48  -  1 mph 1017.5mb 50f 49f
1:36  -  1 mph 1017.6mb 50f 50f
1:30  -  mph 1017.6mb 50f 50f
1:24  -  mph 1017.6mb 50f 50f
1:18  -  mph 1017.6mb 50f 50f
1:12  -  mph 1017.6mb 50f 50f
1:06  -  mph 1017.6mb 50f 50f
1:00  -  mph 1017.6mb 50f 50f
12:54  -  mph 1017.5mb 50f 50f
12:48  -  mph 1017.5mb 50f 50f
12:36  -  mph 1017.5mb 50f 51f
12:30  -  1 mph 1017.4mb 50f 51f
12:24 1 2 mph 1017.3mb 50f 51f
12:18 1 2 mph 1017.3mb 50f 51f
12:12  -  1 mph 1017.3mb 50f 51f
12:06 1
mph
1017.3mb 50f 51f
12:00  -  1 mph 1017.3mb 50f 51f
Mi 04/27 11:54  -  mph 1017.3mb 50f 51f
11:48  -  1 mph 1017.3mb 50f 51f
11:36 1
mph
1017.3mb 50f 51f
11:30 2
mph
1017.3mb 50f 51f
11:24  -  mph 1017.2mb 50f 51f
11:18  -  1 mph 1017.1mb 50f 51f
11:12 1 2 mph 1017.1mb 50f 51f
11:06  -  mph 1017.2mb 50f 51f
11:00  -  mph 1017.2mb 50f 51f
10:36 2 5 mph 1017.2mb 50f 51f
10:30 3
mph
1017.2mb 50f 51f
10:24 2 5 mph 1017.2mb 50f 52f
10:18 1 2 mph 1017.1mb 50f 52f
10:12  -  2 mph 1017.2mb 50f 51f
10:06 2 3 mph 1017.2mb 50f 52f
10:00  -  1 mph 1017.2mb 50f 52f
9:54  -  1 mph 1017.2mb 50f 52f
9:48  -  2 mph 1017.1mb 50f 52f
9:36 1 3 mph 1017.1mb 50f 52f
9:30  -  2 mph 1017.1mb 50f 52f
9:24  -  3 mph 1017.1mb 50f 53f
9:18 1 2 mph 1017.1mb 50f 53f
9:12  -  2 mph 1017.1mb 50f 52f
9:06 1 2 mph 1017mb 50f 52f
9:00  -  1 mph 1017.1mb 50f 52f
8:54  -  1 mph 1017mb 50f 53f
8:48 1 2 mph 1017mb 50f 53f
8:36 3 5 mph 1017mb 50f 54f
8:30 3 6 mph 1016.9mb 50f 54f
8:24 5 6 mph 1016.9mb 50f 54f
8:18 3 6 mph 1016.9mb 50f 54f
8:12 2 6 mph 1016.9mb 50f 54f
8:06 5 7 mph 1016.8mb 50f 54f
8:00 5 8 mph 1016.8mb 50f 54f
7:54 3 6 mph 1016.8mb 50f 55f
7:48 3 6 mph 1016.8mb 50f 55f
7:36  -  mph 1016.8mb 50f 55f
7:30  -  mph 1016.8mb 50f 55f
7:24  -  mph 1016.8mb 50f 55f
7:18  -  mph 1016.8mb 50f 55f
7:12  -  mph 1016.8mb 50f 55f
7:06  -  mph 1016.8mb 50f 55f
7:00  -  mph 1016.7mb 50f 55f
6:54  -  mph 1016.7mb 50f 55f
6:48  -  mph 1016.8mb 50f 55f
6:36  -  mph 1016.8mb 50f 55f
6:30  -  mph 1016.7mb 50f 55f
6:24  -  mph 1016.8mb 51f 55f
6:18  -  mph 1016.8mb 51f 55f
6:12  -  mph 1016.7mb 51f 55f
6:06  -  mph 1016.7mb 51f 55f
6:00  -  mph 1016.8mb 51f 55f
5:54  -  mph 1016.8mb 50f 55f
5:48  -  mph 1016.8mb 50f 55f
5:36  -  mph 1016.8mb 50f 55f
5:30  -  mph 1016.8mb 50f 55f
5:24  -  mph 1016.8mb 50f 55f
5:18  -  mph 1016.8mb 50f 55f
5:12  -  mph 1016.8mb 50f 55f
5:06  -  mph 1016.8mb 50f 55f
5:00  -  mph 1016.8mb 50f 55f
4:54  -  mph 1016.8mb 50f 55f
4:48  -  mph 1016.8mb 50f 55f
4:36  -  mph 1016.9mb 50f 54f
4:30  -  mph 1016.9mb 50f 55f
4:24  -  mph 1016.9mb 50f 55f
4:18  -  mph 1016.9mb 50f 55f
4:12  -  mph 1016.9mb 50f 54f
4:06  -  mph 1016.8mb 50f 55f
4:00  -  mph 1016.8mb 50f 56f
3:54  -  mph 1016.8mb 50f 55f
3:48  -  mph 1016.8mb 50f 54f
3:36  -  mph 1016.7mb 50f 55f
3:30  -  mph 1016.7mb 51f 55f
3:24  -  mph 1016.7mb 51f 55f
3:18  -  mph 1016.7mb 51f 55f
3:12  -  mph 1016.8mb 51f 55f
3:06  -  mph 1016.8mb 51f 55f
3:00  -  mph 1016.8mb 51f 55f
2:54  -  mph 1016.8mb 51f 55f
2:48  -  mph 1016.9mb 51f 55f
2:36 8 9 mph 1016.9mb 50f 55f
2:30 7 9 mph 1016.9mb 50f 55f
2:24 7 9 mph 1016.9mb 50f 55f
2:18 6 9 mph 1016.9mb 50f 55f
2:12 7 10 mph 1016.9mb 50f 54f
2:06 6 8 mph 1016.9mb 50f 54f
2:00 6 7 mph 1016.9mb 50f 54f
1:54 5 8 mph 1016.9mb 50f 54f
1:48 6 9 mph 1016.8mb 50f 54f
1:36 5 8 mph 1016.8mb 50f 54f
1:30 2 6 mph 1016.8mb 50f 54f
1:24 3 6 mph 1016.9mb 50f 54f
1:18  -  3 mph 1016.9mb 50f 54f
1:12 2 6 mph 1016.8mb 50f 54f
1:06 5 8 mph 1016.8mb 50f 54f
1:00 5 7 mph 1016.8mb 50f 54f
12:54 3 6 mph 1016.8mb 50f 54f
12:48 3 10 mph 1016.7mb 50f 54f
12:36 7 11 mph 1016.6mb 50f 54f
12:30 7 10 mph 1016.6mb 50f 54f
12:24 8 13 mph 1016.7mb 50f 53f
12:18 8 13 mph 1016.8mb 50f 54f
12:12 7 11 mph 1016.8mb 50f 54f
12:06 8 13 mph 1016.8mb 50f 53f
12:00 7 10 mph 1016.8mb 50f 53f
11:54 7 13 mph 1016.8mb 50f 53f
11:48 6 13 mph 1016.7mb 50f 54f
11:36 7 13 mph 1016.7mb 50f 53f
11:30 7 10 mph 1016.7mb 50f 53f
11:24 7 14 mph 1016.7mb 50f 53f
11:18 7 11 mph 1016.7mb 50f 53f
11:12 8 13 mph 1016.7mb 50f 53f
11:06 6 14 mph 1016.7mb 50f 53f
11:00 6 10 mph 1016.7mb 50f 53f
10:54 3 8 mph 1016.7mb 50f 53f
10:48 3 10 mph 1016.6mb 50f 53f
10:36 3 8 mph 1016.6mb 50f 53f
10:30 3 8 mph 1016.6mb 50f 53f
10:24 2 8 mph 1016.6mb 50f 53f
10:18 3 10 mph 1016.6mb 50f 53f
10:12 6 10 mph 1016.7mb 50f 52f
10:06 3 9 mph 1016.7mb 50f 52f
10:00 6 8 mph 1016.7mb 50f 52f
9:36 6 8 mph 1016.6mb 50f 51f
9:30 5 7 mph 1016.5mb 50f 51f
9:24 5 9 mph 1016.4mb 50f 51f
9:18 5 9 mph 1016.4mb 50f 52f
9:12 2 10 mph 1016.5mb 50f 52f
9:06 5 7 mph 1016.5mb 50f 52f
9:00 2 10 mph 1016.5mb 50f 52f
8:54 3 8 mph 1016.3mb 50f 52f
8:48 2 7 mph 1016.4mb 50f 53f
8:36 1 6 mph 1016.3mb 50f 53f
8:30 1 6 mph 1016.3mb 50f 52f
8:24 2 6 mph 1016.2mb 50f 52f
8:18  -  5 mph 1016.3mb 50f 51f
8:12 1 5 mph 1016.3mb 50f 51f
8:06  -  6 mph 1016.3mb 50f 50f
8:00 2 5 mph 1016.3mb 50f 50f
7:54 3 6 mph 1016.2mb 50f 49f
7:48 3 5 mph 1016.2mb 50f 48f
7:36 1 3 mph 1016.3mb 50f 48f
7:30 2 3 mph 1016.2mb 50f 47f
7:24 1 3 mph 1016.3mb 50f 47f
7:18 2 3 mph 1016.3mb 50f 46f
7:12 1 3 mph 1016.2mb 50f 46f
7:06 2 3 mph 1016.2mb 50f 46f
7:00 1 3 mph 1016.2mb 50f 46f
6:54 1 2 mph 1016.2mb 50f 45f
6:48 2 3 mph 1016.1mb 50f 45f
6:36 1 3 mph 1016mb 50f 45f
6:30 3 5 mph 1016mb 50f 45f
6:24 2 3 mph 1015.9mb 50f 45f
6:18 1 3 mph 1015.9mb 50f 46f
6:12 2 3 mph 1015.9mb 50f 46f
6:06 1 3 mph 1016mb 50f 46f
6:00 1 3 mph 1015.9mb 50f 46f
5:54 1 3 mph 1015.9mb 50f 46f
5:48 1 5 mph 1015.9mb 50f 46f
5:36 1 3 mph 1015.9mb 50f 46f
5:30  -  5 mph 1015.9mb 50f 46f
5:24  -  3 mph 1016mb 50f 46f
5:18 1 3 mph 1016mb 50f 47f
5:12 1 3 mph 1016mb 50f 47f
5:06  -  2 mph 1016mb 50f 46f
5:00 1 2 mph 1016mb 50f 46f
4:54  -  1 mph 1016mb 50f 47f
4:48  -  2 mph 1016mb 50f 47f
4:36 2
mph
1016.1mb 50f 48f
4:30  -  mph 1016mb 50f 47f
4:24  -  mph 1016mb 50f 47f
4:18  -  mph 1016mb 50f 47f
4:12  -  mph 1016mb 50f 47f
4:06  -  1 mph 1016mb 50f 47f
4:00  -  1 mph 1016mb 50f 47f
3:36  -  mph 1016.1mb 50f 47f
3:30  -  1 mph 1016.1mb 50f 47f
3:24  -  2 mph 1016.1mb 50f 47f
3:18  -  2 mph 1016.2mb 50f 47f
3:12  -  2 mph 1016.2mb 50f 47f
3:06  -  2 mph 1016.2mb 50f 47f
3:00  -  2 mph 1016.2mb 50f 47f
2:54  -  1 mph 1016.2mb 50f 47f
2:48  -  1 mph 1016.2mb 50f 47f
2:36  -  2 mph 1016.3mb 50f 47f
2:30 1 2 mph 1016.3mb 50f 47f
2:24 2
mph
1016.2mb 50f 47f
2:18  -  2 mph 1016.2mb 50f 47f
2:12  -  1 mph 1016.2mb 50f 47f
2:06  -  1 mph 1016.2mb 50f 47f
2:00  -  1 mph 1016.2mb 50f 47f
1:54  -  mph 1016.2mb 50f 48f
1:48  -  mph 1016.3mb 50f 48f
1:36  -  mph 1016.3mb 50f 47f
1:30  -  mph 1016.3mb 50f 47f
1:24  -  1 mph 1016.3mb 50f 47f
1:18  -  1 mph 1016.3mb 50f 47f
1:12  -  1 mph 1016.3mb 50f 47f
1:06 1 2 mph 1016.3mb 50f 47f
1:00  -  1 mph 1016.3mb 50f 48f
12:54  -  2 mph 1016.3mb 50f 47f
12:48  -  2 mph 1016.3mb 50f 47f
12:36 1 2 mph 1016.3mb 50f 47f
12:30  -  1 mph 1016.3mb 50f 47f
12:24  -  mph 1016.4mb 50f 47f
12:18  -  1 mph 1016.3mb 50f 48f
12:12  -  1 mph 1016.3mb 50f 48f
12:06  -  1 mph 1016.3mb 50f 48f
12:00  -  mph 1016.3mb 50f 48f
Di 04/26 11:54  -  mph 1016.3mb 50f 48f
11:48  -  1 mph 1016.3mb 50f 48f
11:36  -  mph 1016.4mb 50f 48f
11:30  -  mph 1016.4mb 50f 48f
11:24  -  mph 1016.4mb 50f 48f
11:18  -  mph 1016.4mb 50f 49f
11:12  -  1 mph 1016.4mb 50f 49f
11:06  -  1 mph 1016.4mb 50f 49f
11:00  -  mph 1016.5mb 50f 49f
10:54  -  mph 1016.5mb 50f 49f
10:48  -  mph 1016.5mb 50f 49f
10:36  -  1 mph 1016.5mb 50f 49f
10:30  -  1 mph 1016.4mb 50f 49f
10:24  -  1 mph 1016.5mb 50f 49f
10:18  -  1 mph 1016.5mb 50f 49f
10:12 1 2 mph 1016.4mb 50f 49f
10:06 1 2 mph 1016.4mb 50f 49f
10:00 1 2 mph 1016.4mb 50f 49f
9:54 1 2 mph 1016.4mb 50f 49f
9:48  -  1 mph 1016.5mb 50f 49f
9:36  -  2 mph 1016.5mb 50f 49f
9:30 1 3 mph 1016.5mb 50f 49f
9:24 1 2 mph 1016.4mb 50f 49f
9:18 1 2 mph 1016.4mb 50f 49f
9:12 1 2 mph 1016.4mb 50f 49f
9:06 2 5 mph 1016.4mb 50f 49f
9:00 3 5 mph 1016.4mb 50f 49f
8:54 2 5 mph 1016.4mb 50f 49f
8:48 3
mph
1016.4mb 50f 50f
8:36 2 3 mph 1016.3mb 50f 50f
8:30 1 2 mph 1016.3mb 50f 50f
8:24 1 2 mph 1016.3mb 50f 50f
8:18 1 2 mph 1016.4mb 50f 50f
8:12  -  1 mph 1016.4mb 50f 50f
8:06 1 2 mph 1016.5mb 50f 50f
8:00 2 3 mph 1016.5mb 50f 50f
7:54 3
mph
1016.5mb 50f 50f
7:48 3
mph
1016.6mb 50f 50f
7:36 3 5 mph 1016.7mb 50f 50f
7:30 2 3 mph 1016.8mb 50f 51f
7:24  -  1 mph 1016.8mb 50f 51f
7:18 1 2 mph 1016.9mb 50f 51f
7:12 2 5 mph 1016.9mb 50f 50f
7:06 5 6 mph 1016.9mb 50f 51f
7:00 3 6 mph 1017mb 50f 50f
6:54 5 7 mph 1017mb 50f 50f
6:48 6 8 mph 1017.1mb 50f 50f
6:36 7 8 mph 1017.1mb 50f 50f
6:30 8 9 mph 1017.1mb 50f 50f
6:24 8 10 mph 1017.2mb 50f 50f
6:18 7 9 mph 1017.3mb 50f 50f
6:12 7 8 mph 1017.4mb 50f 50f
6:06 9 10 mph 1017.5mb 50f 50f
6:00 10 14 mph 1017.5mb 50f 50f
5:54 10 14 mph 1017.5mb 50f 50f
5:48 10 13 mph 1017.6mb 50f 50f
5:36 10 14 mph 1017.6mb 50f 50f
5:30 11 13 mph 1017.7mb 50f 50f
5:24 10 13 mph 1017.7mb 50f 50f
5:18 10 13 mph 1017.7mb 50f 50f
5:12 10 13 mph 1017.7mb 50f 50f
5:06 11 13 mph 1017.7mb 50f 51f
5:00 11 13 mph 1017.7mb 51f 51f
4:54 9 10 mph 1017.7mb 51f 52f
4:48 7 8 mph 1017.7mb 51f 52f
4:36 6 7 mph 1017.8mb 51f 53f
4:30 6 7 mph 1017.8mb 51f 53f
4:24 6 7 mph 1017.8mb 51f 52f
4:18 6 8 mph 1017.9mb 51f 52f
4:12 8 10 mph 1018mb 51f 52f
4:06 7 10 mph 1018.1mb 51f 53f
4:00 8 13 mph 1018.1mb 51f 53f
3:54 11 14 mph 1018.2mb 51f 53f
3:48 6 9 mph 1018.2mb 51f 53f
3:36 6 7 mph 1018.2mb 51f 53f
3:30 3 6 mph 1018.1mb 51f 53f
3:24 5 7 mph 1018.2mb 51f 53f
3:18 5 8 mph 1018.3mb 51f 53f
3:12 7 8 mph 1018.4mb 51f 53f
3:06 5 10 mph 1018.4mb 51f 53f
3:00 6 7 mph 1018.5mb 51f 53f
2:54 7 10 mph 1018.6mb 51f 53f
2:48 6 9 mph 1018.7mb 51f 53f
2:36 6 11 mph 1018.7mb 51f 52f
2:30 8 10 mph 1018.8mb 51f 52f
2:24 8 13 mph 1018.8mb 51f 52f
2:18 8 11 mph 1018.9mb 51f 52f
2:12 9 11 mph 1018.9mb 51f 52f
2:06 8 13 mph 1018.9mb 51f 51f
2:00 8 11 mph 1019mb 51f 52f
1:54 7 11 mph 1019mb 51f 52f
1:48 7 9 mph 1019mb 51f 51f
8:36 10 15 mph 1020.9mb 50f 48f
8:30 10 14 mph 1020.9mb 50f 48f
8:24 8 14 mph 1021mb 50f 48f
8:18 10 13 mph 1021mb 50f 48f
8:12 10 13 mph 1021mb 50f 48f
8:06 10 13 mph 1021mb 50f 48f
8:00 10 14 mph 1021mb 50f 47f
7:54 11 14 mph 1021mb 50f 47f
7:48 9 13 mph 1021mb 50f 48f
7:36 8 14 mph 1021mb 50f 47f
7:30 10 13 mph 1021mb 50f 47f
7:24 9 13 mph 1021.1mb 50f 47f
7:18 8 10 mph 1021.1mb 50f 47f
7:12 5 6 mph 1021.1mb 50f 46f
7:06 2
mph
1021.1mb 50f 47f
7:00  -  3 mph 1021mb 50f 47f
6:54 1 3 mph 1021mb 50f 46f
6:48 1 3 mph 1021mb 50f 45f
6:36 2 3 mph 1021.1mb 50f 44f
6:30 2 3 mph 1021.2mb 50f 43f
6:24 1 2 mph 1021.2mb 50f 43f
6:18 2 3 mph 1021.3mb 50f 42f
6:12 2 3 mph 1021.3mb 50f 42f
6:06 1 2 mph 1021.3mb 50f 41f
6:00 1 3 mph 1021.3mb 50f 41f
5:54 1 2 mph 1021.2mb 50f 41f
5:48 2 3 mph 1021.2mb 50f 41f
5:36 1 2 mph 1021.2mb 50f 41f
5:30 2 3 mph 1021.3mb 50f 41f
5:24  -  1 mph 1021.3mb 50f 41f
5:18  -  1 mph 1021.3mb 50f 41f
5:12 2 3 mph 1021.4mb 50f 41f
5:06 2 3 mph 1021.4mb 50f 41f
5:00 2
mph
1021.5mb 50f 41f
4:54  -  2 mph 1021.4mb 50f 41f
4:48 2 5 mph 1021.4mb 50f 41f
4:36 1 3 mph 1021.5mb 50f 41f
4:30 3 5 mph 1021.5mb 50f 41f
4:24 3 5 mph 1021.5mb 50f 42f
4:18 2 3 mph 1021.4mb 50f 42f
4:12 1 2 mph 1021.4mb 50f 42f
4:06 1 3 mph 1021.4mb 50f 41f
4:00 3
mph
1021.4mb 50f 41f
3:54 1 2 mph 1021.4mb 50f 42f
3:48 2
mph
1021.4mb 50f 41f
3:36 2 5 mph 1021.4mb 50f 41f
3:30 5
mph
1021.4mb 50f 42f
3:24 2 3 mph 1021.3mb 50f 42f
3:18 2 3 mph 1021.3mb 50f 42f
3:12 1 2 mph 1021.3mb 50f 42f
3:06 2 3 mph 1021.4mb 50f 43f
3:00  -  1 mph 1021.4mb 50f 43f
2:54  -  1 mph 1021.4mb 50f 43f
2:48  -  1 mph 1021.5mb 50f 42f
2:36  -  1 mph 1021.4mb 50f 43f
2:30  -  1 mph 1021.4mb 50f 43f
2:24  -  1 mph 1021.5mb 50f 43f
2:18 1 2 mph 1021.5mb 50f 43f
2:12  -  1 mph 1021.5mb 50f 43f
2:06  -  1 mph 1021.5mb 50f 42f
2:00 1 3 mph 1021.5mb 50f 43f
1:54 2 3 mph 1021.5mb 50f 43f
1:48 2 3 mph 1021.6mb 50f 44f
1:36  -  2 mph 1021.6mb 50f 45f
1:30 2 3 mph 1021.7mb 50f 45f
1:24  -  2 mph 1021.7mb 50f 45f
1:18  -  2 mph 1021.8mb 50f 44f
1:12 1 2 mph 1021.8mb 50f 45f
1:06  -  1 mph 1021.8mb 50f 45f
1:00  -  1 mph 1021.8mb 50f 44f
12:54  -  1 mph 1021.9mb 50f 45f
12:48  -  2 mph 1021.8mb 50f 45f
12:36 2 3 mph 1021.9mb 50f 46f
12:30 1 2 mph 1022mb 50f 46f
12:24  -  2 mph 1022mb 50f 46f
12:18 1 3 mph 1022mb 50f 46f
12:12 1 3 mph 1021.9mb 50f 46f
12:06  -  2 mph 1021.8mb 50f 46f
12:00 1 2 mph 1021.8mb 50f 46f
Mo 04/25 11:54 2 3 mph 1021.8mb 50f 46f
11:48 2 3 mph 1021.8mb 50f 46f
11:36 2 3 mph 1021.8mb 50f 46f
11:30 1 3 mph 1021.9mb 50f 46f
11:24 1 3 mph 1021.8mb 50f 46f
11:18 2 3 mph 1021.7mb 50f 46f
11:12 2
mph
1021.8mb 50f 46f
11:06 2
mph
1021.8mb 50f 46f
11:00 2
mph
1021.7mb 50f 47f
10:54  -  2 mph 1021.7mb 50f 47f
10:48 2 5 mph 1021.8mb 50f 47f
10:36  -  2 mph 1021.8mb 50f 47f
10:30  -  3 mph 1021.7mb 50f 47f
10:24 2 6 mph 1021.7mb 50f 48f
10:18 3 8 mph 1021.7mb 50f 48f
10:12 2 6 mph 1021.8mb 50f 48f
10:06 2 5 mph 1021.9mb 50f 48f
10:00 1 3 mph 1021.9mb 50f 48f
9:54 2
mph
1021.9mb 50f 48f
9:48  -  3 mph 1021.9mb 50f 48f
9:36  -  1 mph 1021.8mb 50f 48f
9:30  -  2 mph 1021.9mb 50f 49f
9:24 2 3 mph 1021.8mb 50f 49f
9:18 1 2 mph 1021.8mb 50f 49f
9:12 2 3 mph 1021.8mb 50f 49f
9:06 1 6 mph 1021.8mb 50f 50f
9:00 3 6 mph 1021.8mb 50f 50f
8:54 2 5 mph 1021.8mb 50f 50f
8:48 2 6 mph 1021.8mb 50f 50f
8:36 2 5 mph 1021.7mb 50f 51f
8:30 2 6 mph 1021.7mb 50f 51f
8:24 3 7 mph 1021.6mb 50f 51f
8:18 5 8 mph 1021.6mb 50f 52f
8:12 5 8 mph 1021.5mb 50f 52f
8:06 7 9 mph 1021.5mb 50f 52f
8:00 5 8 mph 1021.4mb 50f 53f
7:54 6 8 mph 1021.4mb 50f 53f
7:48 6 7 mph 1021.4mb 50f 53f
7:36 7 8 mph 1021.4mb 50f 54f
7:30 8 10 mph 1021.4mb 50f 54f
7:24 8 9 mph 1021.4mb 50f 54f
7:18 7 10 mph 1021.4mb 50f 55f
7:12 9 13 mph 1021.4mb 50f 55f
7:06 10 14 mph 1021.4mb 50f 55f
7:00 9 14 mph 1021.4mb 50f 55f
6:54 9 14 mph 1021.4mb 50f 55f
6:48 11 15 mph 1021.5mb 50f 55f
6:36 10 13 mph 1021.5mb 50f 55f
6:30 10 13 mph 1021.5mb 50f 56f
6:24 9 10 mph 1021.5mb 50f 56f
6:18 10 13 mph 1021.5mb 50f 56f